createdAt,value
2022-10-17T00:01:45.914Z,96783.06
2022-10-17T00:04:31.711Z,96780.72
2022-10-17T00:07:17.649Z,96794.97
2022-10-17T00:10:04.743Z,96793.13
2022-10-17T00:12:51.945Z,96789.25
2022-10-17T00:15:38.076Z,96792.78
2022-10-17T00:18:24.297Z,96787.91
2022-10-17T00:21:18.632Z,96788.72
2022-10-17T00:24:04.763Z,96799.66
2022-10-17T00:26:50.650Z,96791.41
2022-10-17T00:29:36.560Z,96804.19
2022-10-17T00:32:22.694Z,96794.78
2022-10-17T00:35:09.240Z,96804.66
2022-10-17T00:37:55.386Z,96801.28
2022-10-17T00:40:41.204Z,96787.38
2022-10-17T00:43:27.376Z,96791.72
2022-10-17T00:46:13.440Z,96802.28
2022-10-17T00:49:03.869Z,96814.00
2022-10-17T00:51:53.050Z,96808.31
2022-10-17T00:54:43.013Z,96817.19
2022-10-17T00:57:30.991Z,96795.56
2022-10-17T01:00:18.034Z,96796.84
2022-10-17T01:03:04.393Z,96799.03
2022-10-17T01:05:50.436Z,96806.41
2022-10-17T01:08:36.921Z,96812.72
2022-10-17T01:11:33.508Z,96817.25
2022-10-17T01:14:45.000Z,96810.34
2022-10-17T01:18:05.045Z,96807.00
2022-10-17T01:21:09.822Z,96790.38
2022-10-17T01:24:23.589Z,96804.59
2022-10-17T01:27:26.738Z,96794.72
2022-10-17T01:30:34.491Z,96788.34
2022-10-17T01:33:43.498Z,96791.03
2022-10-17T01:36:37.253Z,96793.38
2022-10-17T01:39:23.696Z,96803.25
2022-10-17T01:42:36.545Z,96794.34
2022-10-17T01:45:33.512Z,96784.97
2022-10-17T01:48:23.122Z,96796.88
2022-10-17T01:51:13.663Z,96780.44
2022-10-17T01:54:08.036Z,96789.66
2022-10-17T01:56:58.921Z,96780.56
2022-10-17T01:59:46.575Z,96796.69
2022-10-17T02:02:33.177Z,96800.38
2022-10-17T02:05:22.351Z,96804.56
2022-10-17T02:08:09.013Z,96798.38
2022-10-17T02:10:54.767Z,96798.06
2022-10-17T02:13:43.477Z,96805.25
2022-10-17T02:16:56.462Z,96783.44
2022-10-17T02:19:45.255Z,96801.88
2022-10-17T02:22:37.069Z,96805.56
2022-10-17T02:25:37.064Z,96791.47
2022-10-17T02:28:40.873Z,96792.41
2022-10-17T02:31:31.793Z,96814.72
2022-10-17T02:34:24.809Z,96813.72
2022-10-17T02:37:11.996Z,96808.34
2022-10-17T02:39:59.657Z,96823.28
2022-10-17T02:42:46.328Z,96821.94
2022-10-17T02:45:36.054Z,96837.69
2022-10-17T02:48:26.884Z,96833.47
2022-10-17T02:51:17.138Z,96822.56
2022-10-17T02:54:09.957Z,96836.31
2022-10-17T02:57:01.657Z,96841.81
2022-10-17T02:59:48.324Z,96833.28
2022-10-17T03:02:50.254Z,96840.63
2022-10-17T03:05:36.095Z,96835.75
2022-10-17T03:08:22.709Z,96834.06
2022-10-17T03:11:09.016Z,96853.19
2022-10-17T03:13:54.789Z,96847.81
2022-10-17T03:16:40.731Z,96849.66
2022-10-17T03:19:27.073Z,96844.59
2022-10-17T03:22:13.398Z,96852.97
2022-10-17T03:25:01.464Z,96840.91
2022-10-17T03:27:47.829Z,96854.81
2022-10-17T03:30:33.829Z,96863.34
2022-10-17T03:33:19.899Z,96856.63
2022-10-17T03:36:10.144Z,96859.31
2022-10-17T03:38:56.603Z,96867.03
2022-10-17T03:41:42.700Z,96866.38
2022-10-17T03:44:28.640Z,96866.38
2022-10-17T03:47:14.470Z,96866.50
2022-10-17T03:50:00.730Z,96868.50
2022-10-17T03:52:50.291Z,96860.47
2022-10-17T03:55:36.431Z,96859.28
2022-10-17T03:58:23.344Z,96869.66
2022-10-17T04:01:12.705Z,96859.28
2022-10-17T04:03:58.964Z,96864.75
2022-10-17T04:06:48.784Z,96860.56
2022-10-17T04:09:34.633Z,96875.94
2022-10-17T04:12:26.976Z,96875.81
2022-10-17T04:15:13.250Z,96870.91
2022-10-17T04:17:59.656Z,96878.63
2022-10-17T04:20:45.591Z,96879.63
2022-10-17T04:23:31.727Z,96879.31
2022-10-17T04:26:24.236Z,96878.47
2022-10-17T04:29:10.773Z,96875.09
2022-10-17T04:31:57.552Z,96870.38
2022-10-17T04:35:12.764Z,96881.00
2022-10-17T04:38:03.189Z,96864.72
2022-10-17T04:40:49.153Z,96889.38
2022-10-17T04:43:36.909Z,96890.22
2022-10-17T04:46:22.990Z,96866.41
2022-10-17T04:49:09.418Z,96885.72
2022-10-17T04:51:56.400Z,96866.22
2022-10-17T04:54:50.988Z,96878.03
2022-10-17T04:57:37.536Z,96885.22
2022-10-17T05:00:36.292Z,96879.84
2022-10-17T05:03:41.158Z,96890.94
2022-10-17T05:06:28.403Z,96895.28
2022-10-17T05:09:33.067Z,96891.91
2022-10-17T05:12:20.056Z,96905.16
2022-10-17T05:15:08.401Z,96906.53
2022-10-17T05:17:56.092Z,96909.03
2022-10-17T05:20:43.257Z,96913.56
2022-10-17T05:23:30.527Z,96915.53
2022-10-17T05:26:16.681Z,96904.44
2022-10-17T05:29:03.537Z,96915.41
2022-10-17T05:31:52.193Z,96927.31
2022-10-17T05:34:39.187Z,96926.78
2022-10-17T05:37:25.500Z,96939.16
2022-10-17T05:40:14.402Z,96948.91
2022-10-17T05:43:01.443Z,96946.91
2022-10-17T05:45:47.774Z,96931.31
2022-10-17T05:48:38.663Z,96951.78
2022-10-17T05:51:25.129Z,96955.31
2022-10-17T05:54:12.961Z,96947.97
2022-10-17T05:56:58.902Z,96956.50
2022-10-17T05:59:48.772Z,96960.72
2022-10-17T06:02:38.132Z,96956.38
2022-10-17T06:05:24.829Z,96961.28
2022-10-17T06:08:10.952Z,96956.22
2022-10-17T06:10:56.740Z,96962.94
2022-10-17T06:13:42.945Z,96969.97
2022-10-17T06:16:35.825Z,96986.78
2022-10-17T06:19:21.825Z,96978.63
2022-10-17T06:22:07.945Z,96961.94
2022-10-17T06:24:55.258Z,96980.44
2022-10-17T06:27:42.261Z,96986.16
2022-10-17T06:30:29.717Z,96976.31
2022-10-17T06:33:16.796Z,96987.53
2022-10-17T06:36:04.158Z,96977.97
2022-10-17T06:38:51.292Z,96986.22
2022-10-17T06:41:52.731Z,96975.44
2022-10-17T06:44:40.407Z,96979.53
2022-10-17T06:47:58.454Z,96997.53
2022-10-17T06:51:02.350Z,97006.06
2022-10-17T06:53:48.560Z,97006.16
2022-10-17T06:57:12.944Z,97000.97
2022-10-17T07:00:19.761Z,97012.72
2022-10-17T07:03:10.945Z,97012.94
2022-10-17T07:05:57.688Z,97017.13
2022-10-17T07:08:44.728Z,97012.97
2022-10-17T07:11:35.204Z,97014.69
2022-10-17T07:14:21.533Z,97016.06
2022-10-17T07:17:07.643Z,97011.06
2022-10-17T07:19:53.730Z,97024.69
2022-10-17T07:22:40.037Z,97025.66
2022-10-17T07:25:26.541Z,97022.19
2022-10-17T07:28:17.396Z,97023.84
2022-10-17T07:31:06.069Z,97026.75
2022-10-17T07:33:51.948Z,97018.72
2022-10-17T07:36:37.684Z,97034.03
2022-10-17T07:39:24.695Z,97029.16
2022-10-17T07:42:10.648Z,97031.03
2022-10-17T07:44:56.465Z,97019.13
2022-10-17T07:47:44.925Z,97033.25
2022-10-17T07:50:34.486Z,97025.72
2022-10-17T07:53:20.422Z,97032.25
2022-10-17T07:56:07.713Z,97036.81
2022-10-17T07:58:53.783Z,97032.78
2022-10-17T08:01:39.821Z,97018.16
2022-10-17T08:04:26.580Z,97031.78
2022-10-17T08:07:21.724Z,97027.09
2022-10-17T08:10:10.625Z,97028.13
2022-10-17T08:12:57.785Z,97025.06
2022-10-17T08:15:44.068Z,97012.66
2022-10-17T08:18:30.255Z,97014.38
2022-10-17T08:21:16.577Z,97008.50
2022-10-17T08:24:03.273Z,97013.38
2022-10-17T08:26:51.678Z,97019.25
2022-10-17T08:29:38.578Z,97006.31
2022-10-17T08:32:26.961Z,97002.94
2022-10-17T08:35:14.761Z,97014.38
2022-10-17T08:38:03.332Z,97019.41
2022-10-17T08:40:49.785Z,97015.81
2022-10-17T08:44:10.155Z,97002.25
2022-10-17T08:47:00.162Z,97010.25
2022-10-17T08:49:51.497Z,97016.56
2022-10-17T08:52:47.332Z,97011.38
2022-10-17T08:55:51.381Z,97017.38
2022-10-17T08:58:38.112Z,96993.69
2022-10-17T09:01:30.164Z,97007.34
2022-10-17T09:04:38.074Z,97004.78
2022-10-17T09:07:42.328Z,97004.59
2022-10-17T09:10:37.518Z,97004.16
2022-10-17T09:13:44.799Z,97002.03
2022-10-17T09:16:47.310Z,97002.56
2022-10-17T09:19:44.320Z,96984.06
2022-10-17T09:22:35.632Z,96977.22
2022-10-17T09:25:22.191Z,96988.69
2022-10-17T09:28:20.998Z,96976.56
2022-10-17T09:31:17.034Z,96983.63
2022-10-17T09:34:03.335Z,96983.84
2022-10-17T09:36:49.170Z,96986.94
2022-10-17T09:39:35.051Z,96978.66
2022-10-17T10:34:21.165Z,96947.56
2022-10-17T10:37:17.599Z,96950.28
2022-10-17T10:40:15.989Z,96952.16
2022-10-17T10:43:05.490Z,96932.88
2022-10-17T10:45:52.610Z,96910.38
2022-10-17T10:48:50.705Z,96933.25
2022-10-17T10:51:47.397Z,96921.06
2022-10-17T10:57:31.882Z,96898.34
2022-10-17T11:00:21.819Z,96916.13
2022-10-17T11:03:19.103Z,96909.53
2022-10-17T11:06:13.373Z,96915.19
2022-10-17T11:09:36.603Z,96916.28
2022-10-17T11:12:29.231Z,96908.19
2022-10-17T11:15:32.537Z,96892.50
2022-10-17T11:18:27.120Z,96901.16
2022-10-17T11:21:24.369Z,96892.63
2022-10-17T11:24:19.345Z,96884.72
2022-10-17T11:27:06.882Z,96889.31
2022-10-17T11:29:52.748Z,96888.06
2022-10-17T11:32:41.743Z,96887.63
2022-10-17T11:35:36.750Z,96878.06
2022-10-17T11:38:50.407Z,96882.03
2022-10-17T11:41:52.578Z,96873.47
2022-10-17T11:44:41.007Z,96870.31
2022-10-17T11:47:32.409Z,96869.28
2022-10-17T11:53:50.486Z,96867.19
2022-10-17T11:56:45.399Z,96860.31
2022-10-17T11:59:54.624Z,96846.09
2022-10-17T12:03:07.552Z,96860.03
2022-10-17T12:06:04.899Z,96853.50
2022-10-17T12:09:06.266Z,96852.41
2022-10-17T12:11:55.603Z,96843.59
2022-10-17T12:14:48.779Z,96851.34
2022-10-17T12:17:40.533Z,96833.38
2022-10-17T12:20:30.524Z,96841.28
2022-10-17T12:23:16.194Z,96838.16
2022-10-17T12:26:07.333Z,96835.28
2022-10-17T12:28:53.608Z,96832.06
2022-10-17T12:31:39.931Z,96827.25
2022-10-17T12:34:26.414Z,96818.00
2022-10-17T12:37:15.100Z,96821.88
2022-10-17T12:40:01.249Z,96826.81
2022-10-17T12:42:49.551Z,96823.47
2022-10-17T12:46:00.889Z,96816.78
2022-10-17T12:49:00.750Z,96820.00
2022-10-17T12:52:07.005Z,96817.59
2022-10-17T12:55:12.209Z,96801.41
2022-10-17T12:58:13.076Z,96810.03
2022-10-17T13:01:22.700Z,96810.00
2022-10-17T13:04:09.762Z,96814.84
2022-10-17T13:06:58.667Z,96817.50
2022-10-17T13:09:45.173Z,96813.00
2022-10-17T13:12:37.660Z,96808.72
2022-10-17T13:15:26.734Z,96808.69
2022-10-17T13:18:21.181Z,96807.81
2022-10-17T13:21:15.307Z,96797.16
2022-10-17T13:24:01.196Z,96802.28
2022-10-17T13:26:47.529Z,96797.28
2022-10-17T13:29:33.798Z,96761.59
2022-10-17T13:32:20.098Z,96795.66
2022-10-17T13:35:08.892Z,96805.38
2022-10-17T13:37:55.981Z,96793.44
2022-10-17T13:40:50.122Z,96813.03
2022-10-17T13:43:36.538Z,96802.19
2022-10-17T13:46:38.271Z,96811.88
2022-10-17T13:49:41.603Z,96802.78
2022-10-17T13:52:29.290Z,96798.00
2022-10-17T13:55:17.908Z,96793.34
2022-10-17T13:58:16.572Z,96802.38
2022-10-17T14:01:03.055Z,96803.44
2022-10-17T14:03:54.099Z,96803.19
2022-10-17T14:06:49.680Z,96812.97
2022-10-17T14:09:37.605Z,96798.56
2022-10-17T14:12:23.701Z,96795.22
2022-10-17T14:15:13.903Z,96807.28
2022-10-17T14:18:09.049Z,96800.03
2022-10-17T14:24:28.834Z,96801.94
2022-10-17T14:27:39.833Z,96796.56
2022-10-17T14:30:51.572Z,96793.06
2022-10-17T14:33:32.185Z,96791.75
2022-10-17T14:36:19.981Z,96780.84
2022-10-17T14:39:19.676Z,96794.97
2022-10-17T14:42:05.789Z,96799.13
2022-10-17T14:44:53.326Z,96795.38
2022-10-17T14:47:43.608Z,96792.31
2022-10-17T14:50:32.259Z,96807.50
2022-10-17T14:53:18.313Z,96795.53
2022-10-17T14:56:20.781Z,96805.94
2022-10-17T14:59:11.790Z,96790.88
2022-10-17T15:01:58.650Z,96816.13
2022-10-17T15:04:44.468Z,96811.97
2022-10-17T15:07:30.579Z,96812.13
2022-10-17T15:10:37.246Z,96824.50
2022-10-17T15:13:28.270Z,96814.09
2022-10-17T15:16:21.336Z,96809.59
2022-10-17T15:19:07.708Z,96816.78
2022-10-17T15:21:53.886Z,96813.00
2022-10-17T15:24:39.940Z,96818.34
2022-10-17T15:27:26.580Z,96807.97
2022-10-17T15:30:21.623Z,96813.66
2022-10-17T15:33:07.726Z,96790.78
2022-10-17T15:35:53.807Z,96814.13
2022-10-17T15:38:39.701Z,96816.09
2022-10-17T15:41:27.310Z,96828.47
2022-10-17T15:44:13.129Z,96822.47
2022-10-17T15:46:58.945Z,96830.44
2022-10-17T15:49:44.775Z,96837.16
2022-10-17T15:52:30.780Z,96830.75
2022-10-17T15:55:18.138Z,96835.59
2022-10-17T15:58:04.107Z,96847.72
2022-10-17T16:00:50.043Z,96841.53
2022-10-17T16:03:35.900Z,96847.78
2022-10-17T16:06:22.695Z,96859.25
2022-10-17T16:09:09.405Z,96865.13
2022-10-17T16:11:55.233Z,96872.66
2022-10-17T16:14:45.586Z,96881.59
2022-10-17T16:17:32.131Z,96873.88
2022-10-17T16:20:19.626Z,96888.25
2022-10-17T16:23:07.749Z,96880.72
2022-10-17T16:25:54.067Z,96899.28
2022-10-17T16:28:45.987Z,96899.88
2022-10-17T16:31:35.423Z,96915.66
2022-10-17T16:34:21.092Z,96914.34
2022-10-17T16:37:06.967Z,96898.25
2022-10-17T16:39:53.727Z,96913.84
2022-10-17T16:42:39.688Z,96923.00
2022-10-17T16:45:26.009Z,96928.13
2022-10-17T16:48:12.330Z,96931.00
2022-10-17T16:50:58.576Z,96934.91
2022-10-17T16:53:50.275Z,96945.25
2022-10-17T16:56:36.657Z,96938.22
2022-10-17T16:59:22.809Z,96947.13
2022-10-17T17:02:11.653Z,96946.63
2022-10-17T17:04:58.277Z,96945.88
2022-10-17T17:07:44.166Z,96965.66
2022-10-17T17:10:30.247Z,96972.59
2022-10-17T17:13:16.283Z,96965.44
2022-10-17T17:16:33.119Z,96973.84
2022-10-17T17:19:20.478Z,96977.91
2022-10-17T17:22:07.159Z,96979.03
2022-10-17T17:24:53.046Z,96978.53
2022-10-17T17:27:39.094Z,96975.63
2022-10-17T17:30:25.005Z,96995.34
2022-10-17T17:33:11.404Z,96990.09
2022-10-17T17:36:00.058Z,96996.06
2022-10-17T17:38:47.094Z,97002.38
2022-10-17T17:41:33.844Z,96991.88
2022-10-17T17:44:19.636Z,96969.59
2022-10-17T17:47:05.704Z,96994.56
2022-10-17T17:49:51.848Z,96998.19
2022-10-17T17:52:40.080Z,96995.59
2022-10-17T17:55:26.311Z,96997.69
2022-10-17T17:58:12.567Z,97000.78
2022-10-17T18:00:58.960Z,96996.69
2022-10-17T18:03:45.597Z,97003.91
2022-10-17T18:06:31.781Z,97006.84
2022-10-17T18:09:17.922Z,97008.13
2022-10-17T18:12:04.275Z,97001.25
2022-10-17T18:14:50.369Z,97002.78
2022-10-17T18:17:36.400Z,97000.56
2022-10-17T18:20:22.133Z,96993.94
2022-10-17T18:23:08.821Z,97007.13
2022-10-17T18:25:55.490Z,97006.44
2022-10-17T18:28:42.921Z,96988.53
2022-10-17T18:31:32.189Z,97005.88
2022-10-17T18:34:18.402Z,97001.25
2022-10-17T18:37:04.303Z,97005.66
2022-10-17T18:39:52.756Z,97005.69
2022-10-17T18:42:38.685Z,97009.09
2022-10-17T18:45:24.669Z,97006.09
2022-10-17T18:48:10.460Z,97007.78
2022-10-17T18:50:56.643Z,96992.97
2022-10-17T18:53:47.782Z,97008.66
2022-10-17T18:56:33.785Z,97001.13
2022-10-17T18:59:20.718Z,97000.31
2022-10-17T19:02:07.551Z,97010.88
2022-10-17T19:04:53.762Z,97012.91
2022-10-17T19:07:39.751Z,97013.44
2022-10-17T19:10:25.959Z,97014.13
2022-10-17T19:13:12.073Z,97014.28
2022-10-17T19:15:58.093Z,97014.34
2022-10-17T19:18:48.525Z,97025.44
2022-10-17T19:21:34.861Z,97012.00
2022-10-17T19:24:25.535Z,97022.25
2022-10-17T19:27:12.272Z,97029.66
2022-10-17T19:29:58.566Z,97035.56
2022-10-17T19:32:44.462Z,97034.53
2022-10-17T19:35:30.380Z,97036.06
2022-10-17T19:38:16.465Z,97037.91
2022-10-17T19:41:09.753Z,97040.59
2022-10-17T19:43:55.949Z,97023.47
2022-10-17T19:46:47.149Z,97041.59
2022-10-17T19:49:33.261Z,97036.03
2022-10-17T19:52:19.171Z,97015.53
2022-10-17T19:55:05.710Z,97038.22
2022-10-17T19:57:51.873Z,97038.03
2022-10-17T20:00:37.840Z,97035.47
2022-10-17T20:03:25.234Z,97026.09
2022-10-17T20:06:11.325Z,97039.50
2022-10-17T20:08:57.632Z,97039.66
2022-10-17T20:11:43.831Z,97040.84
2022-10-17T20:14:30.168Z,97034.44
2022-10-17T20:17:16.045Z,97054.25
2022-10-17T20:20:07.798Z,97046.34
2022-10-17T20:22:55.383Z,97042.50
2022-10-17T20:25:41.612Z,97046.16
2022-10-17T20:28:28.509Z,97014.56
2022-10-17T20:31:15.079Z,97052.19
2022-10-17T20:34:01.391Z,97036.38
2022-10-17T20:36:47.935Z,97049.81
2022-10-17T20:39:33.928Z,97040.44
2022-10-17T20:42:21.369Z,97045.94
2022-10-17T20:45:07.507Z,97031.81
2022-10-17T20:47:54.162Z,97037.72
2022-10-17T20:50:41.800Z,97038.88
2022-10-17T20:53:43.066Z,97041.88
2022-10-17T20:56:31.084Z,97044.06
2022-10-17T20:59:18.046Z,97046.38
2022-10-17T21:02:05.326Z,97050.91
2022-10-17T21:04:51.606Z,97035.91
2022-10-17T21:07:37.882Z,97039.94
2022-10-17T21:10:41.429Z,97042.75
2022-10-17T21:13:27.622Z,97048.47
2022-10-17T21:16:16.245Z,97059.34
2022-10-17T21:19:03.333Z,97051.41
2022-10-17T21:21:49.640Z,97044.84
2022-10-17T21:24:35.782Z,97037.28
2022-10-17T21:27:21.746Z,97049.19
2022-10-17T21:32:59.083Z,97047.28
2022-10-17T21:35:45.344Z,97035.41
2022-10-17T21:38:31.227Z,97051.91
2022-10-17T21:41:22.128Z,97045.97
2022-10-17T21:44:12.813Z,97051.97
2022-10-17T21:46:59.737Z,97036.50
2022-10-17T21:49:45.570Z,97049.22
2022-10-17T21:52:31.647Z,97045.50
2022-10-17T21:55:17.995Z,97052.22
2022-10-17T21:58:04.717Z,97046.47
2022-10-17T22:00:50.778Z,97053.13
2022-10-17T22:03:45.852Z,97047.28
2022-10-17T22:06:40.125Z,97044.91
2022-10-17T22:09:27.265Z,97053.09
2022-10-17T22:12:13.326Z,97058.06
2022-10-17T22:14:59.154Z,97052.47
2022-10-17T22:17:45.049Z,97056.31
2022-10-17T22:20:31.022Z,97058.63
2022-10-17T22:23:16.902Z,97047.81
2022-10-17T22:26:03.153Z,97065.28
2022-10-17T22:28:49.418Z,97052.81
2022-10-17T22:31:35.968Z,97051.97
2022-10-17T22:34:22.181Z,97039.66
2022-10-17T22:37:08.000Z,97045.38
2022-10-17T22:39:53.864Z,97048.53
2022-10-17T22:42:39.874Z,97051.50
2022-10-17T22:45:25.681Z,97035.88
2022-10-17T22:48:11.706Z,97041.69
2022-10-17T22:50:58.908Z,97035.78
2022-10-17T22:53:45.193Z,97046.81
2022-10-17T22:56:31.375Z,97040.38
2022-10-17T22:59:17.171Z,97031.66
2022-10-17T23:02:03.001Z,97025.75
2022-10-17T23:04:48.997Z,97033.13
2022-10-17T23:07:34.881Z,97038.03
2022-10-17T23:10:20.841Z,97033.00
2022-10-17T23:13:06.779Z,97033.47
2022-10-17T23:15:54.306Z,97039.50
2022-10-17T23:18:40.332Z,97015.41
2022-10-17T23:21:26.341Z,97009.06
2022-10-17T23:24:12.072Z,97023.25
2022-10-17T23:26:57.964Z,97030.28
2022-10-17T23:29:43.712Z,97020.94
2022-10-17T23:32:29.867Z,97006.75
2022-10-17T23:35:16.144Z,97021.78
2022-10-17T23:38:02.075Z,97023.63
2022-10-17T23:40:48.361Z,97007.47
2022-10-17T23:43:34.685Z,97007.78
2022-10-17T23:46:20.573Z,97008.78
2022-10-17T23:49:06.538Z,97008.34
2022-10-17T23:51:52.652Z,97011.19
2022-10-17T23:54:38.843Z,97023.41
2022-10-17T23:57:24.957Z,97025.25
